createdAt,value
2019-05-23T00:01:13.743Z,75.84
2019-05-23T00:04:13.576Z,75.67
2019-05-23T00:07:00.511Z,76.08
2019-05-23T00:09:46.751Z,76.31
2019-05-23T00:12:34.213Z,76.27
2019-05-23T00:15:12.500Z,76.22
2019-05-23T00:17:44.252Z,76.01
2019-05-23T00:20:15.679Z,76.51
2019-05-23T00:22:43.920Z,76.29
2019-05-23T00:25:11.898Z,76.32
2019-05-23T00:27:42.335Z,76.29
2019-05-23T00:30:18.183Z,76.20
2019-05-23T00:32:49.417Z,76.24
2019-05-23T00:35:18.939Z,76.28
2019-05-23T00:37:48.077Z,76.80
2019-05-23T00:40:16.501Z,77.19
2019-05-23T00:42:44.811Z,76.83
2019-05-23T00:45:12.614Z,76.60
2019-05-23T00:47:40.259Z,76.25
2019-05-23T00:50:07.962Z,76.30
2019-05-23T00:52:37.434Z,76.34
2019-05-23T00:55:09.481Z,76.70
2019-05-23T00:57:39.354Z,76.54
2019-05-23T01:00:09.037Z,76.38
2019-05-23T01:02:36.207Z,76.34
2019-05-23T01:05:04.365Z,76.21
2019-05-23T01:07:32.539Z,76.37
2019-05-23T01:09:59.850Z,76.66
2019-05-23T01:12:27.759Z,77.00
2019-05-23T01:14:57.522Z,77.43
2019-05-23T01:17:26.580Z,77.21
2019-05-23T01:19:53.900Z,76.85
2019-05-23T01:22:21.690Z,76.46
2019-05-23T01:24:52.019Z,76.48
2019-05-23T01:27:20.100Z,76.45
2019-05-23T01:29:51.940Z,76.00
2019-05-23T01:32:26.623Z,75.82
2019-05-23T01:34:54.551Z,76.38
2019-05-23T01:37:22.345Z,76.57
2019-05-23T01:39:50.033Z,76.69
2019-05-23T01:42:17.802Z,76.62
2019-05-23T01:44:46.856Z,76.39
2019-05-23T01:47:14.697Z,76.77
2019-05-23T01:49:42.223Z,76.81
2019-05-23T01:52:11.205Z,76.72
2019-05-23T01:54:40.579Z,76.85
2019-05-23T01:57:10.102Z,77.24
2019-05-23T01:59:37.230Z,77.42
2019-05-23T02:02:04.503Z,77.42
2019-05-23T02:04:32.521Z,77.34
2019-05-23T02:06:59.798Z,77.51
2019-05-23T02:09:27.598Z,77.65
2019-05-23T02:11:54.727Z,77.82
2019-05-23T02:14:22.596Z,77.69
2019-05-23T02:16:49.789Z,77.49
2019-05-23T02:19:18.873Z,77.15
2019-05-23T02:21:46.151Z,77.23
2019-05-23T02:24:13.886Z,77.02
2019-05-23T02:26:41.351Z,77.59
2019-05-23T02:29:09.432Z,77.89
2019-05-23T02:31:37.033Z,77.86
2019-05-23T02:34:05.430Z,77.83
2019-05-23T02:36:33.864Z,77.79
2019-05-23T02:39:20.795Z,78.08
2019-05-23T02:41:57.668Z,78.06
2019-05-23T02:44:27.397Z,78.02
2019-05-23T02:47:03.399Z,78.18
2019-05-23T02:49:33.281Z,78.49
2019-05-23T02:52:14.832Z,78.32
2019-05-23T02:54:42.276Z,77.94
2019-05-23T02:57:11.058Z,78.76
2019-05-23T02:59:45.723Z,80.12
2019-05-23T03:02:56.094Z,81.72
2019-05-23T03:05:25.645Z,81.46
2019-05-23T03:07:53.575Z,79.51
2019-05-23T03:10:23.304Z,78.46
2019-05-23T03:12:52.659Z,78.12
2019-05-23T03:15:21.053Z,78.03
2019-05-23T03:17:52.019Z,78.55
2019-05-23T03:20:20.936Z,77.94
2019-05-23T03:22:53.848Z,77.03
2019-05-23T03:26:18.753Z,76.70
2019-05-23T03:28:47.814Z,76.80
2019-05-23T03:31:29.446Z,76.21
2019-05-23T03:33:52.241Z,76.29
2019-05-23T03:36:21.230Z,76.68
2019-05-23T03:38:49.318Z,76.71
2019-05-23T03:41:19.424Z,77.08
2019-05-23T03:43:46.514Z,77.52
2019-05-23T03:46:19.039Z,77.55
2019-05-23T03:48:46.667Z,77.23
2019-05-23T03:51:14.813Z,77.06
2019-05-23T03:53:44.957Z,76.98
2019-05-23T03:56:12.749Z,75.60
2019-05-23T03:58:43.660Z,75.77
2019-05-23T04:01:12.752Z,75.38
2019-05-23T04:03:42.137Z,74.65
2019-05-23T04:06:11.402Z,74.83
2019-05-23T04:08:38.591Z,74.55
2019-05-23T04:11:07.247Z,73.74
2019-05-23T04:13:38.198Z,73.00
2019-05-23T04:16:31.074Z,71.81
2019-05-23T04:19:01.127Z,71.37
2019-05-23T04:21:28.629Z,69.92
2019-05-23T04:23:56.508Z,69.37
2019-05-23T04:26:29.709Z,67.72
2019-05-23T04:28:59.277Z,66.12
2019-05-23T04:31:29.621Z,67.82
2019-05-23T04:33:56.681Z,67.45
2019-05-23T04:36:23.692Z,65.73
2019-05-23T04:38:50.948Z,65.17
2019-05-23T04:41:18.463Z,65.01
2019-05-23T04:43:45.444Z,63.58
2019-05-23T04:46:12.634Z,63.18
2019-05-23T04:48:39.679Z,62.55
2019-05-23T04:51:10.450Z,62.21
2019-05-23T04:53:38.231Z,62.21
2019-05-23T04:56:57.812Z,61.74
2019-05-23T04:59:51.264Z,61.33
2019-05-23T05:02:26.954Z,60.77
2019-05-23T05:04:52.780Z,61.13
2019-05-23T05:07:21.178Z,61.61
2019-05-23T05:09:48.620Z,62.12
2019-05-23T05:12:15.871Z,61.43
2019-05-23T05:14:42.867Z,60.31
2019-05-23T05:17:11.150Z,58.99
2019-05-23T05:19:38.793Z,58.09
2019-05-23T05:22:05.838Z,57.62
2019-05-23T05:24:32.861Z,56.63
2019-05-23T05:27:00.438Z,55.50
2019-05-23T05:29:27.381Z,54.45
2019-05-23T05:32:03.424Z,52.87
2019-05-23T05:34:28.532Z,52.87
2019-05-23T05:36:55.493Z,52.06
2019-05-23T05:39:23.403Z,51.36
2019-05-23T05:41:50.579Z,51.03
2019-05-23T05:44:18.292Z,50.79
2019-05-23T05:46:45.298Z,51.02
2019-05-23T05:49:12.984Z,50.36
2019-05-23T05:51:39.980Z,49.52
2019-05-23T05:54:08.540Z,48.83
2019-05-23T05:56:35.560Z,48.16
2019-05-23T05:59:03.905Z,47.19
2019-05-23T06:01:34.342Z,46.28
2019-05-23T06:04:01.641Z,46.28
2019-05-23T06:06:34.414Z,45.65
2019-05-23T06:09:07.429Z,45.73
2019-05-23T06:11:35.098Z,46.70
2019-05-23T06:14:02.266Z,47.60
2019-05-23T06:16:29.806Z,47.58
2019-05-23T06:18:56.884Z,48.63
2019-05-23T06:21:27.422Z,48.17
2019-05-23T06:25:13.558Z,47.49
2019-05-23T06:27:51.222Z,47.02
2019-05-23T06:30:20.916Z,44.68
2019-05-23T06:32:48.159Z,46.71
2019-05-23T06:35:15.631Z,49.58
2019-05-23T06:37:42.584Z,48.12
2019-05-23T06:40:10.050Z,46.01
2019-05-23T06:42:37.053Z,49.39
2019-05-23T06:45:07.225Z,53.57
2019-05-23T06:47:35.210Z,55.88
2019-05-23T06:50:04.366Z,61.14
2019-05-23T06:52:31.663Z,60.91
2019-05-23T06:54:59.878Z,58.57
2019-05-23T06:57:27.074Z,60.03
2019-05-23T06:59:54.219Z,56.15
2019-05-23T07:02:21.818Z,52.74
2019-05-23T07:04:49.677Z,49.20
2019-05-23T07:07:16.744Z,47.93
2019-05-23T07:09:44.009Z,45.65
2019-05-23T07:12:18.439Z,43.46
2019-05-23T07:14:58.410Z,39.44
2019-05-23T07:17:34.429Z,39.59
2019-05-23T07:20:10.054Z,40.86
2019-05-23T07:22:57.693Z,38.23
2019-05-23T07:25:41.351Z,38.92
2019-05-23T07:28:29.083Z,38.15
2019-05-23T07:31:05.742Z,38.26
2019-05-23T07:34:01.059Z,37.37
2019-05-23T07:36:23.136Z,37.64
2019-05-23T07:39:11.520Z,36.97
2019-05-23T07:41:40.828Z,34.18
2019-05-23T07:44:30.929Z,37.77
2019-05-23T07:47:10.030Z,35.07
2019-05-23T07:53:03.283Z,33.25
2019-05-23T07:55:55.605Z,32.24
2019-05-23T07:58:25.488Z,31.22
2019-05-23T08:00:57.745Z,30.11
2019-05-23T08:03:29.114Z,30.75
2019-05-23T08:05:59.102Z,30.24
2019-05-23T08:08:26.524Z,36.91
2019-05-23T08:10:56.375Z,34.92
2019-05-23T08:13:23.925Z,33.67
2019-05-23T08:15:51.788Z,30.73
2019-05-23T08:18:19.138Z,30.03
2019-05-23T08:20:46.201Z,29.12
2019-05-23T08:23:13.582Z,29.31
2019-05-23T08:25:47.792Z,28.48
2019-05-23T08:28:14.914Z,29.64
2019-05-23T08:30:42.615Z,28.70
2019-05-23T08:33:11.804Z,28.27
2019-05-23T08:35:42.380Z,27.99
2019-05-23T08:38:10.092Z,29.65
2019-05-23T08:40:38.150Z,27.85
2019-05-23T08:43:05.744Z,26.66
2019-05-23T08:45:34.511Z,27.24
2019-05-23T08:48:04.159Z,27.01
2019-05-23T08:50:31.339Z,27.85
2019-05-23T08:52:58.529Z,29.12
2019-05-23T08:55:26.308Z,28.37
2019-05-23T08:57:54.223Z,27.40
2019-05-23T09:00:24.067Z,28.26
2019-05-23T09:02:58.298Z,28.21
2019-05-23T09:05:27.576Z,28.47
2019-05-23T09:07:57.201Z,29.25
2019-05-23T09:10:29.117Z,32.29
2019-05-23T09:20:53.566Z,33.60
2019-05-23T09:23:28.092Z,31.98
2019-05-23T09:26:11.123Z,33.39
2019-05-23T09:28:40.226Z,30.71
2019-05-23T09:31:24.041Z,29.13
2019-05-23T09:33:52.779Z,31.95
2019-05-23T09:36:19.878Z,29.29
2019-05-23T09:38:47.365Z,27.93
2019-05-23T09:41:16.743Z,27.93
2019-05-23T09:43:44.499Z,28.23
2019-05-23T09:46:13.958Z,27.87
2019-05-23T09:48:41.831Z,29.68
2019-05-23T09:51:09.121Z,28.96
2019-05-23T09:53:37.645Z,27.61
2019-05-23T09:56:04.864Z,25.08
2019-05-23T09:58:32.140Z,26.01
2019-05-23T10:00:59.314Z,29.16
2019-05-23T10:03:26.890Z,31.49
2019-05-23T10:05:53.967Z,31.05
2019-05-23T10:08:21.375Z,30.53
2019-05-23T10:10:48.511Z,26.25
2019-05-23T10:13:15.922Z,25.39
2019-05-23T10:16:11.757Z,26.31
2019-05-23T10:18:40.441Z,24.19
2019-05-23T10:21:07.959Z,22.78
2019-05-23T10:23:35.077Z,23.73
2019-05-23T10:26:04.334Z,24.16
2019-05-23T10:28:32.112Z,23.95
2019-05-23T10:31:00.758Z,22.74
2019-05-23T10:33:28.993Z,22.02
2019-05-23T10:36:00.725Z,25.22
2019-05-23T10:38:29.456Z,22.70
2019-05-23T10:40:59.836Z,24.07
2019-05-23T10:43:27.824Z,23.55
2019-05-23T10:45:55.129Z,22.02
2019-05-23T10:48:22.744Z,22.74
2019-05-23T10:50:50.196Z,21.65
2019-05-23T10:53:17.594Z,25.68
2019-05-23T10:55:44.913Z,26.95
2019-05-23T10:58:15.619Z,27.63
2019-05-23T11:00:44.097Z,25.27
2019-05-23T11:03:12.366Z,26.47
2019-05-23T11:06:13.318Z,26.90
2019-05-23T11:08:30.575Z,24.65
2019-05-23T11:11:00.335Z,27.21
2019-05-23T11:13:28.057Z,31.44
2019-05-23T11:15:56.588Z,31.46
2019-05-23T11:18:24.613Z,26.73
2019-05-23T11:20:53.591Z,24.26
2019-05-23T11:23:25.134Z,23.88
2019-05-23T11:25:52.536Z,21.26
2019-05-23T11:28:19.616Z,18.25
2019-05-23T11:30:54.617Z,17.52
2019-05-23T11:33:21.995Z,22.66
2019-05-23T11:35:49.954Z,21.61
2019-05-23T11:38:17.201Z,18.02
2019-05-23T11:40:44.318Z,19.58
2019-05-23T11:43:11.411Z,19.59
2019-05-23T11:45:46.421Z,20.74
2019-05-23T11:48:16.137Z,23.71
2019-05-23T11:50:44.125Z,25.63
2019-05-23T11:53:11.275Z,20.43
2019-05-23T11:55:40.280Z,20.75
2019-05-23T11:58:11.451Z,20.29
2019-05-23T12:01:33.597Z,22.88
2019-05-23T12:04:32.906Z,22.38
2019-05-23T12:07:11.232Z,19.44
2019-05-23T12:09:38.441Z,15.00
2019-05-23T12:12:07.329Z,13.18
2019-05-23T12:14:35.006Z,10.91
2019-05-23T12:17:04.589Z,10.63
2019-05-23T12:19:32.223Z,10.41
2019-05-23T12:22:00.233Z,10.63
2019-05-23T12:24:27.758Z,11.79
2019-05-23T12:26:55.005Z,11.95
2019-05-23T12:29:25.116Z,11.42
2019-05-23T12:31:52.262Z,12.52
2019-05-23T12:34:24.181Z,13.01
2019-05-23T12:36:53.154Z,12.41
2019-05-23T12:39:21.522Z,11.53
2019-05-23T12:41:48.718Z,11.73
2019-05-23T12:44:17.838Z,11.55
2019-05-23T12:46:45.509Z,19.56
2019-05-23T12:49:27.392Z,20.23
2019-05-23T12:51:55.404Z,15.96
2019-05-23T12:54:24.078Z,17.02
2019-05-23T12:56:52.049Z,15.78
2019-05-23T12:59:21.165Z,14.38
2019-05-23T13:01:50.435Z,13.35
2019-05-23T13:04:19.790Z,15.01
2019-05-23T13:06:47.124Z,13.94
2019-05-23T13:09:14.889Z,12.29
2019-05-23T13:11:42.063Z,13.92
2019-05-23T13:14:09.484Z,15.35
2019-05-23T13:16:38.954Z,17.80
2019-05-23T13:19:06.806Z,18.23
2019-05-23T13:21:34.035Z,14.76
2019-05-23T13:24:02.499Z,15.19
2019-05-23T13:26:33.423Z,12.40
2019-05-23T13:29:04.265Z,11.13
2019-05-23T13:31:31.566Z,10.03
2019-05-23T13:34:01.458Z,9.98
2019-05-23T13:36:28.809Z,13.32
2019-05-23T13:38:56.228Z,13.32
2019-05-23T13:41:24.559Z,13.38
2019-05-23T13:44:01.614Z,14.08
2019-05-23T13:46:32.192Z,13.19
2019-05-23T13:49:01.737Z,12.13
2019-05-23T13:51:35.869Z,14.99
2019-05-23T13:54:04.040Z,16.96
2019-05-23T13:56:31.581Z,13.47
2019-05-23T13:59:00.500Z,10.51
2019-05-23T14:01:27.789Z,9.95
2019-05-23T14:03:55.239Z,10.41
2019-05-23T14:06:22.998Z,9.89
2019-05-23T14:08:50.440Z,14.04
2019-05-23T14:11:19.333Z,19.96
2019-05-23T14:13:47.246Z,19.87
2019-05-23T14:16:19.539Z,18.52
2019-05-23T14:18:49.503Z,15.63
2019-05-23T14:21:20.815Z,13.69
2019-05-23T14:23:51.123Z,12.01
2019-05-23T14:26:20.439Z,11.10
2019-05-23T14:28:51.907Z,11.24
2019-05-23T14:31:23.496Z,11.49
2019-05-23T14:34:13.720Z,13.50
2019-05-23T14:37:06.255Z,16.46
2019-05-23T14:39:39.223Z,18.96
2019-05-23T14:42:19.041Z,19.37
2019-05-23T14:44:48.799Z,17.21
2019-05-23T14:47:44.274Z,19.27
2019-05-23T14:50:32.837Z,17.08
2019-05-23T14:53:04.637Z,15.28
2019-05-23T14:55:37.775Z,14.13
2019-05-23T14:58:05.798Z,12.72
2019-05-23T15:00:37.681Z,11.57
2019-05-23T15:03:12.790Z,10.64
2019-05-23T15:05:50.789Z,18.00
2019-05-23T15:08:21.074Z,16.00
2019-05-23T15:10:49.931Z,14.34
2019-05-23T15:13:18.434Z,12.37
2019-05-23T15:15:51.154Z,11.32
2019-05-23T15:18:24.594Z,10.12
2019-05-23T15:21:13.981Z,10.71
2019-05-23T15:23:41.166Z,14.15
2019-05-23T15:26:22.503Z,18.13
2019-05-23T15:28:53.483Z,17.26
2019-05-23T15:31:26.962Z,17.03
2019-05-23T15:33:56.100Z,17.08
2019-05-23T15:36:23.493Z,16.24
2019-05-23T15:39:08.081Z,14.12
2019-05-23T15:41:23.378Z,15.24
2019-05-23T15:43:50.508Z,17.24
2019-05-23T15:46:18.933Z,22.96
2019-05-23T15:48:46.479Z,21.43
2019-05-23T15:51:17.805Z,22.89
2019-05-23T15:54:00.583Z,22.32
2019-05-23T15:56:33.306Z,20.28
2019-05-23T15:59:20.072Z,17.42
2019-05-23T16:02:06.978Z,22.61
2019-05-23T16:04:35.391Z,21.91
2019-05-23T16:07:03.125Z,19.88
2019-05-23T16:09:31.154Z,17.36
2019-05-23T16:11:59.080Z,16.93
2019-05-23T16:14:26.900Z,17.31
2019-05-23T16:16:56.718Z,18.47
2019-05-23T16:19:23.975Z,18.22
2019-05-23T16:21:51.490Z,16.59
2019-05-23T16:24:18.712Z,16.14
2019-05-23T16:26:46.758Z,16.70
2019-05-23T16:29:17.256Z,16.75
2019-05-23T16:31:46.073Z,17.42
2019-05-23T16:34:13.222Z,17.21
2019-05-23T16:36:40.351Z,15.68
2019-05-23T16:39:23.935Z,14.50
2019-05-23T16:41:51.293Z,14.87
2019-05-23T16:44:18.763Z,14.71
2019-05-23T16:46:46.151Z,14.95
2019-05-23T16:49:15.252Z,15.61
2019-05-23T16:51:42.580Z,15.25
2019-05-23T16:54:20.424Z,14.55
2019-05-23T16:57:28.349Z,15.27
2019-05-23T17:00:22.273Z,15.25
2019-05-23T17:03:16.676Z,15.04
2019-05-23T17:06:10.444Z,15.94
2019-05-23T17:08:50.145Z,16.11
2019-05-23T17:11:37.998Z,16.02
2019-05-23T17:14:15.438Z,15.94
2019-05-23T17:16:56.956Z,15.71
2019-05-23T17:19:46.705Z,15.79
2019-05-23T17:22:36.319Z,15.84
2019-05-23T17:25:20.543Z,15.61
2019-05-23T17:27:54.099Z,17.10
2019-05-23T17:30:28.003Z,17.43
2019-05-23T17:32:55.653Z,18.41
2019-05-23T17:35:23.255Z,18.61
2019-05-23T17:37:50.376Z,18.32
2019-05-23T17:40:25.063Z,18.87
2019-05-23T17:42:49.464Z,20.06
2019-05-23T17:45:17.643Z,20.66
2019-05-23T17:47:45.169Z,21.48
2019-05-23T17:50:12.292Z,22.98
2019-05-23T17:52:39.675Z,22.13
2019-05-23T17:55:07.189Z,21.91
2019-05-23T17:57:34.427Z,21.25
2019-05-23T18:00:01.769Z,21.65
2019-05-23T18:02:29.707Z,22.72
2019-05-23T18:05:01.742Z,23.43
2019-05-23T18:07:32.408Z,25.18
2019-05-23T18:10:01.717Z,27.27
2019-05-23T18:12:29.075Z,27.93
2019-05-23T18:14:58.528Z,27.51
2019-05-23T18:17:27.638Z,27.61
2019-05-23T18:19:54.777Z,28.13
2019-05-23T18:22:22.406Z,27.82
2019-05-23T18:24:49.742Z,29.34
2019-05-23T18:27:18.823Z,29.43
2019-05-23T18:29:46.692Z,29.07
2019-05-23T18:32:18.245Z,28.16
2019-05-23T18:35:09.220Z,28.50
2019-05-23T18:37:36.708Z,27.98
2019-05-23T18:40:04.562Z,28.73
2019-05-23T18:42:37.700Z,29.22
2019-05-23T18:45:06.005Z,30.29
2019-05-23T18:47:38.241Z,31.43
2019-05-23T18:50:11.311Z,31.75
2019-05-23T18:53:17.970Z,32.84
2019-05-23T18:56:21.284Z,33.42
2019-05-23T18:58:54.026Z,33.88
2019-05-23T19:01:26.167Z,34.34
2019-05-23T19:03:58.423Z,35.29
2019-05-23T19:06:25.821Z,35.85
2019-05-23T19:09:17.690Z,36.44
2019-05-23T19:11:54.665Z,37.10
2019-05-23T19:14:29.753Z,38.22
2019-05-23T19:16:58.326Z,38.54
2019-05-23T19:19:30.218Z,38.54
2019-05-23T19:21:59.222Z,39.18
2019-05-23T19:24:28.210Z,40.34
2019-05-23T19:26:58.174Z,41.11
2019-05-23T19:29:27.014Z,41.59
2019-05-23T19:31:58.893Z,42.72
2019-05-23T19:34:31.856Z,43.29
2019-05-23T19:37:08.707Z,44.91
2019-05-23T19:39:38.885Z,45.88
2019-05-23T19:42:07.439Z,46.29
2019-05-23T19:44:37.127Z,46.92
2019-05-23T19:47:11.682Z,47.22
2019-05-23T19:49:39.143Z,47.72
2019-05-23T19:52:07.212Z,48.35
2019-05-23T19:54:35.081Z,48.75
2019-05-23T19:57:05.070Z,49.16
2019-05-23T19:59:32.350Z,49.16
2019-05-23T20:02:21.983Z,50.03
2019-05-23T20:05:07.989Z,50.21
2019-05-23T20:07:36.129Z,50.79
2019-05-23T20:10:03.757Z,52.03
2019-05-23T20:12:31.436Z,53.68
2019-05-23T20:14:58.764Z,53.86
2019-05-23T20:17:25.890Z,54.75
2019-05-23T20:19:55.743Z,55.55
2019-05-23T20:22:24.195Z,56.84
2019-05-23T20:24:53.500Z,56.37
2019-05-23T20:27:24.027Z,56.36
2019-05-23T20:29:51.158Z,56.09
2019-05-23T20:32:18.917Z,57.08
2019-05-23T20:34:47.964Z,57.03
2019-05-23T20:37:15.214Z,57.93
2019-05-23T20:39:43.156Z,58.29
2019-05-23T20:42:12.046Z,58.49
2019-05-23T20:44:39.553Z,58.59
2019-05-23T20:47:07.915Z,58.41
2019-05-23T20:49:35.409Z,58.61
2019-05-23T20:52:03.562Z,60.57
2019-05-23T20:55:01.679Z,60.05
2019-05-23T20:57:45.212Z,59.31
2019-05-23T21:00:20.648Z,59.59
2019-05-23T21:02:48.557Z,59.69
2019-05-23T21:05:15.702Z,59.62
2019-05-23T21:07:43.289Z,59.32
2019-05-23T21:10:14.011Z,59.78
2019-05-23T21:12:41.074Z,60.00
2019-05-23T21:15:08.211Z,60.73
2019-05-23T21:17:35.705Z,61.33
2019-05-23T21:20:03.434Z,61.67
2019-05-23T21:22:31.896Z,61.49
2019-05-23T21:24:59.130Z,61.78
2019-05-23T21:27:26.785Z,62.33
2019-05-23T21:29:55.834Z,63.05
2019-05-23T21:32:26.733Z,63.28
2019-05-23T21:34:56.445Z,63.38
2019-05-23T21:37:23.619Z,63.78
2019-05-23T21:39:54.969Z,63.36
2019-05-23T21:42:23.989Z,63.06
2019-05-23T21:44:56.368Z,62.78
2019-05-23T21:47:23.484Z,62.58
2019-05-23T21:49:52.422Z,62.21
2019-05-23T21:52:20.140Z,62.58
2019-05-23T21:54:47.994Z,62.88
2019-05-23T21:57:16.594Z,63.01
2019-05-23T21:59:47.289Z,63.13
2019-05-23T22:02:21.650Z,63.36
2019-05-23T22:04:56.129Z,63.41
2019-05-23T22:07:28.982Z,63.49
2019-05-23T22:09:58.739Z,63.43
2019-05-23T22:12:25.974Z,63.32
2019-05-23T22:15:04.542Z,63.04
2019-05-23T22:17:31.914Z,62.99
2019-05-23T22:19:59.326Z,64.19
2019-05-23T22:22:26.881Z,64.03
2019-05-23T22:24:54.058Z,64.67
2019-05-23T22:27:22.102Z,65.90
2019-05-23T22:29:50.496Z,66.38
2019-05-23T22:32:19.794Z,65.94
2019-05-23T22:35:17.930Z,65.26
2019-05-23T22:37:49.179Z,65.58
2019-05-23T22:40:16.542Z,66.87
2019-05-23T22:42:45.719Z,67.22
2019-05-23T22:45:40.959Z,65.91
2019-05-23T22:48:14.807Z,65.32
2019-05-23T22:50:42.134Z,65.00
2019-05-23T22:53:09.689Z,64.91
2019-05-23T22:55:38.598Z,66.21
2019-05-23T22:58:07.693Z,67.62
2019-05-23T23:00:40.776Z,67.48
2019-05-23T23:03:08.503Z,66.92
2019-05-23T23:05:37.043Z,66.83
2019-05-23T23:08:06.524Z,66.38
2019-05-23T23:10:33.935Z,67.09
2019-05-23T23:13:01.019Z,66.91
2019-05-23T23:15:30.102Z,67.00
2019-05-23T23:17:59.467Z,66.65
2019-05-23T23:20:26.565Z,66.58
2019-05-23T23:22:53.719Z,67.28
2019-05-23T23:25:20.996Z,68.23
2019-05-23T23:27:48.313Z,68.26
2019-05-23T23:30:18.551Z,68.41
2019-05-23T23:32:45.726Z,68.75
2019-05-23T23:35:13.093Z,69.31
2019-05-23T23:37:41.527Z,69.02
2019-05-23T23:40:09.053Z,68.58
2019-05-23T23:42:38.285Z,68.89
2019-05-23T23:45:24.287Z,69.20
2019-05-23T23:48:09.580Z,69.32
2019-05-23T23:50:55.261Z,69.56
2019-05-23T23:53:40.818Z,69.70
2019-05-23T23:56:26.811Z,70.06
2019-05-23T23:58:53.637Z,70.09
